Time;durP1;ratioP1;P1;durP2;ratioP2;P2;SDS_P1;SDS_P2;PMS_P1;PMS_P2;Temp;Humidity;BMP_temperature;BMP_pressure;BME280_temperature;BME280_humidity;BME280_pressure;Samples;Min_cycle;Max_cycle;Signal;HPM_P1;HPM_P2
2022/05/23 00:01:37;;;;;;;4.25;3.83;;;20.70;99.90;;;;;;5044661;28;20768;-76
2022/05/23 00:04:04;;;;;;;4.50;4.10;;;20.80;99.90;;;;;;5042185;28;20218;-76
2022/05/23 00:06:31;;;;;;;4.18;3.88;;;20.70;99.90;;;;;;5046327;28;20245;-76
2022/05/23 00:08:58;;;;;;;5.30;4.05;;;20.70;99.90;;;;;;5051566;28;20282;-77
2022/05/23 00:11:25;;;;;;;4.38;3.88;;;20.50;99.90;;;;;;5040605;28;21488;-77
2022/05/23 00:13:52;;;;;;;4.18;3.78;;;20.40;99.90;;;;;;5045470;28;20219;-77
2022/05/23 00:16:24;;;;;;;5.28;3.90;;;20.40;99.90;;;;;;5044562;28;20227;-76
2022/05/23 00:18:52;;;;;;;3.88;3.58;;;20.20;99.90;;;;;;5047433;28;20230;-76
2022/05/23 00:21:20;;;;;;;5.03;4.43;;;20.30;99.90;;;;;;5042869;28;20210;-75
2022/05/23 00:23:47;;;;;;;6.97;4.20;;;20.30;99.90;;;;;;5043603;28;20281;-76
2022/05/23 00:26:16;;;;;;;4.13;3.83;;;20.40;99.90;;;;;;5042275;28;20223;-75
2022/05/23 00:28:43;;;;;;;4.50;4.10;;;20.50;99.90;;;;;;5041858;28;20195;-75
2022/05/23 00:31:11;;;;;;;5.45;3.95;;;20.50;99.90;;;;;;5041392;28;20223;-76
2022/05/23 00:36:26;;;;;;;4.90;4.22;;;20.30;99.90;;;;;;5043057;28;20225;-76
2022/05/23 00:38:54;;;;;;;5.40;3.78;;;20.20;99.90;;;;;;5048506;28;20226;-77
2022/05/23 00:44:17;;;;;;;3.88;3.50;;;20.10;99.90;;;;;;5047388;28;20271;-77
2022/05/23 00:46:52;;;;;;;4.20;3.80;;;20.10;99.90;;;;;;5045292;28;20215;-78
2022/05/23 00:49:23;;;;;;;3.88;3.55;;;20.00;99.90;;;;;;5043959;28;20194;-75
2022/05/23 00:51:51;;;;;;;5.38;4.07;;;20.00;99.90;;;;;;5042518;28;20223;-76
2022/05/23 00:54:19;;;;;;;4.20;3.80;;;20.00;99.90;;;;;;5047908;28;20219;-77
2022/05/23 00:56:49;;;;;;;4.43;3.70;;;19.90;99.90;;;;;;5042818;28;20888;-77
2022/05/23 00:59:23;;;;;;;3.50;3.20;;;19.90;99.90;;;;;;5043566;28;20345;-76
2022/05/23 01:01:50;;;;;;;4.03;3.60;;;19.90;99.90;;;;;;5052110;28;20218;-76
2022/05/23 01:04:18;;;;;;;4.60;3.70;;;20.00;99.90;;;;;;5042671;28;20685;-77
2022/05/23 01:06:46;;;;;;;5.07;3.80;;;20.10;99.90;;;;;;5044821;28;20360;-76
2022/05/23 01:09:13;;;;;;;3.95;3.65;;;20.10;99.90;;;;;;5046949;28;20203;-76
2022/05/23 01:11:41;;;;;;;5.65;3.92;;;20.00;99.90;;;;;;5044873;28;20236;-77
2022/05/23 01:14:08;;;;;;;4.05;3.72;;;20.00;99.90;;;;;;5045198;28;20214;-76
2022/05/23 01:16:44;;;;;;;3.38;3.05;;;20.00;99.90;;;;;;5043713;28;20231;-76
2022/05/23 01:19:12;;;;;;;4.45;3.35;;;19.90;99.90;;;;;;5040948;28;20225;-75
2022/05/23 01:21:48;;;;;;;3.95;3.38;;;19.90;99.90;;;;;;5043327;28;20215;-75
2022/05/23 01:24:25;;;;;;;4.07;3.53;;;19.90;99.90;;;;;;5045698;28;20640;-75
2022/05/23 01:26:56;;;;;;;4.50;3.40;;;19.90;99.90;;;;;;5043723;28;20229;-77
2022/05/23 01:29:23;;;;;;;3.47;3.10;;;19.90;99.90;;;;;;5045333;28;20203;-77
2022/05/23 01:31:50;;;;;;;3.45;3.15;;;19.80;99.90;;;;;;5046845;28;20217;-77
2022/05/23 01:34:17;;;;;;;3.72;3.15;;;19.70;99.90;;;;;;5054412;28;20288;-76
2022/05/23 01:36:44;;;;;;;4.45;2.72;;;19.70;99.90;;;;;;5043502;28;20771;-76
2022/05/23 01:39:11;;;;;;;2.97;2.78;;;19.70;99.90;;;;;;5045591;28;20280;-77
2022/05/23 01:41:38;;;;;;;5.18;3.30;;;19.70;99.90;;;;;;5040260;28;20586;-77
2022/05/23 01:44:07;;;;;;;3.28;2.97;;;19.70;99.90;;;;;;5041322;28;20258;-77
2022/05/23 01:46:34;;;;;;;3.53;3.22;;;19.70;99.90;;;;;;5041462;28;20280;-76
2022/05/23 01:49:01;;;;;;;4.40;3.00;;;19.70;99.90;;;;;;5045137;28;20219;-77
2022/05/23 01:51:28;;;;;;;5.65;3.10;;;19.70;99.90;;;;;;5042917;28;20226;-76
2022/05/23 01:53:55;;;;;;;3.92;3.25;;;19.70;99.90;;;;;;5046436;28;20324;-76
2022/05/23 01:56:22;;;;;;;4.63;3.40;;;19.70;99.90;;;;;;5043411;28;20594;-76
2022/05/23 02:01:37;;;;;;;4.43;3.20;;;19.70;99.90;;;;;;5043141;28;20369;-76
2022/05/23 02:04:05;;;;;;;3.35;2.92;;;19.80;99.90;;;;;;5046101;28;20234;-77
2022/05/23 02:06:32;;;;;;;5.25;3.00;;;19.90;99.90;;;;;;5043321;28;20314;-77
2022/05/23 02:08:59;;;;;;;4.35;3.00;;;19.90;99.90;;;;;;5048052;28;20215;-77
2022/05/23 02:11:26;;;;;;;3.28;2.80;;;19.90;99.90;;;;;;5043975;28;22393;-77
2022/05/23 02:13:53;;;;;;;2.78;2.55;;;19.80;99.90;;;;;;5042393;28;20215;-77
2022/05/23 02:16:22;;;;;;;3.83;2.80;;;19.70;99.90;;;;;;5046058;28;21669;-77
2022/05/23 02:18:51;;;;;;;6.05;3.00;;;19.70;99.90;;;;;;5045565;28;20249;-76
2022/05/23 02:21:18;;;;;;;3.05;2.85;;;19.60;99.90;;;;;;5043452;28;20281;-77
2022/05/23 02:23:45;;;;;;;3.38;2.53;;;19.50;99.90;;;;;;5056487;28;20215;-77
2022/05/23 02:26:12;;;;;;;3.47;2.95;;;19.60;99.90;;;;;;5048863;28;20223;-77
2022/05/23 02:28:39;;;;;;;3.78;2.90;;;19.60;99.90;;;;;;5048124;28;20657;-77
2022/05/23 02:31:06;;;;;;;5.95;2.78;;;19.70;99.90;;;;;;5048591;28;20232;-77
2022/05/23 02:33:33;;;;;;;3.75;2.88;;;19.70;99.90;;;;;;5050589;28;20313;-77
2022/05/23 02:36:01;;;;;;;4.00;3.60;;;19.80;99.90;;;;;;5048273;28;20218;-76
2022/05/23 02:38:28;;;;;;;3.65;3.30;;;19.80;99.90;;;;;;5046168;28;20199;-76
2022/05/23 02:40:55;;;;;;;4.00;2.85;;;19.80;99.90;;;;;;5051345;28;20300;-76
2022/05/23 02:43:22;;;;;;;5.30;3.38;;;19.90;99.90;;;;;;5046051;28;20222;-77
2022/05/23 02:45:51;;;;;;;5.38;2.90;;;19.90;99.90;;;;;;5049617;28;20600;-77
2022/05/23 02:48:19;;;;;;;3.75;2.85;;;19.90;99.90;;;;;;5048279;28;20294;-76
2022/05/23 02:50:47;;;;;;;3.55;2.67;;;19.90;99.90;;;;;;5046230;28;20210;-76
2022/05/23 02:53:15;;;;;;;4.15;3.35;;;19.80;99.90;;;;;;5046446;28;20222;-77
2022/05/23 02:55:43;;;;;;;2.60;2.40;;;19.70;99.90;;;;;;5046640;28;20206;-77
2022/05/23 02:58:10;;;;;;;2.63;2.42;;;19.70;99.90;;;;;;5043543;28;20207;-75
2022/05/23 03:00:38;;;;;;;5.13;2.80;;;19.70;99.90;;;;;;5044614;28;20226;-76
2022/05/23 03:03:04;;;;;;;2.60;2.40;;;19.60;99.90;;;;;;5048546;28;20230;-76
2022/05/23 03:05:33;;;;;;;3.78;2.80;;;19.50;99.90;;;;;;5045116;28;20199;-76
2022/05/23 03:08:00;;;;;;;3.65;2.65;;;19.40;99.90;;;;;;5043141;28;20222;-77
2022/05/23 03:10:28;;;;;;;2.53;2.33;;;19.30;99.90;;;;;;5042794;28;20195;-76
2022/05/23 03:12:55;;;;;;;3.22;2.42;;;19.20;99.90;;;;;;5045927;28;20226;-76
2022/05/23 03:15:23;;;;;;;3.10;2.70;;;19.20;99.90;;;;;;5048169;28;20195;-77
2022/05/23 03:17:50;;;;;;;2.72;2.53;;;19.20;99.90;;;;;;5051794;28;20709;-76
2022/05/23 03:20:18;;;;;;;3.53;2.67;;;19.10;99.90;;;;;;5042641;28;20218;-77
2022/05/23 03:28:15;;;;;;;3.78;2.67;;;19.10;99.90;;;;;;5042456;28;20333;-77
2022/05/23 03:30:42;;;;;;;5.63;2.83;;;19.10;99.90;;;;;;5045618;28;20199;-77
2022/05/23 03:33:11;;;;;;;5.20;3.10;;;19.10;99.90;;;;;;5046834;28;20245;-77
2022/05/23 03:35:39;;;;;;;4.05;2.83;;;19.10;99.90;;;;;;5044134;28;20199;-77
2022/05/23 03:38:07;;;;;;;6.00;3.03;;;19.10;99.90;;;;;;5046041;28;20222;-76
2022/05/23 03:40:37;;;;;;;3.47;2.30;;;19.10;99.90;;;;;;5044163;28;20219;-76
2022/05/23 03:43:04;;;;;;;3.00;2.70;;;19.10;99.90;;;;;;5046193;28;20242;-76
2022/05/23 03:45:32;;;;;;;3.42;2.70;;;19.10;99.90;;;;;;5041556;28;20206;-76
2022/05/23 03:48:00;;;;;;;4.13;2.60;;;19.00;99.90;;;;;;5049947;28;20268;-76
2022/05/23 03:50:29;;;;;;;3.10;2.80;;;19.00;99.90;;;;;;5042325;28;20195;-75
2022/05/23 03:52:57;;;;;;;3.78;2.80;;;19.00;99.90;;;;;;5042898;28;20231;-76
2022/05/23 03:55:25;;;;;;;3.65;2.70;;;19.00;99.90;;;;;;5043093;28;20191;-77
2022/05/23 03:57:53;;;;;;;3.58;2.78;;;19.00;99.90;;;;;;5045899;28;20211;-78
2022/05/23 04:00:20;;;;;;;3.10;2.80;;;19.00;99.90;;;;;;5043995;28;20276;-77
2022/05/23 04:02:47;;;;;;;3.13;2.83;;;19.00;99.90;;;;;;5044070;28;20280;-76
2022/05/23 04:05:17;;;;;;;3.28;2.97;;;19.00;99.90;;;;;;5047063;28;20195;-75
2022/05/23 04:07:45;;;;;;;3.40;2.90;;;18.90;99.90;;;;;;5061035;28;20211;-76
2022/05/23 04:10:14;;;;;;;3.08;2.60;;;18.90;99.90;;;;;;5044609;28;20191;-76
2022/05/23 04:12:42;;;;;;;3.10;2.53;;;18.90;99.90;;;;;;5040371;28;20767;-76
2022/05/23 04:15:12;;;;;;;2.78;2.35;;;18.90;99.90;;;;;;5045212;28;20984;-76
2022/05/23 04:17:39;;;;;;;3.50;2.42;;;19.00;99.90;;;;;;5042710;28;20693;-77
2022/05/23 04:20:08;;;;;;;3.22;2.50;;;19.00;99.90;;;;;;5042834;28;20223;-76
2022/05/23 04:22:36;;;;;;;5.63;2.60;;;19.00;99.90;;;;;;5041205;28;20223;-76
2022/05/23 04:25:04;;;;;;;2.97;2.63;;;19.00;99.90;;;;;;5043325;28;20281;-77
2022/05/23 04:27:31;;;;;;;2.40;2.20;;;18.90;99.90;;;;;;5041565;28;20227;-76
2022/05/23 04:29:58;;;;;;;4.38;2.58;;;19.00;99.90;;;;;;5043229;28;20206;-76
2022/05/23 04:35:14;;;;;;;3.25;2.92;;;19.10;99.90;;;;;;5044017;28;20222;-76
2022/05/23 04:37:41;;;;;;;3.20;2.78;;;18.90;99.90;;;;;;5042971;28;20596;-77
2022/05/23 04:40:10;;;;;;;5.40;3.30;;;18.60;99.90;;;;;;5043273;28;20226;-76
2022/05/23 04:42:37;;;;;;;3.40;2.72;;;18.40;99.90;;;;;;5041769;28;21463;-77
2022/05/23 04:45:04;;;;;;;6.10;3.97;;;18.20;99.90;;;;;;5041209;28;20199;-77
2022/05/23 04:50:17;;;;;;;5.03;3.72;;;18.00;99.90;;;;;;5043308;28;20280;-77
2022/05/23 04:52:44;;;;;;;3.63;3.15;;;18.20;99.90;;;;;;5045917;28;20222;-77
2022/05/23 04:55:11;;;;;;;4.72;3.72;;;18.30;99.90;;;;;;5042465;28;20207;-77
2022/05/23 04:57:38;;;;;;;6.43;3.50;;;18.20;99.90;;;;;;5044497;28;20263;-77
2022/05/23 05:00:08;;;;;;;6.10;4.20;;;18.00;99.90;;;;;;5053026;28;20219;-77
2022/05/23 05:02:37;;;;;;;6.82;3.75;;;17.80;99.90;;;;;;5039450;28;20700;-77
2022/05/23 05:05:05;;;;;;;6.57;3.63;;;17.70;99.90;;;;;;5039345;28;20207;-77
2022/05/23 05:07:32;;;;;;;5.47;3.50;;;17.70;99.90;;;;;;5038776;28;20210;-77
2022/05/23 05:09:59;;;;;;;4.38;3.55;;;17.80;99.90;;;;;;5044389;28;20735;-77
2022/05/23 05:12:26;;;;;;;4.68;3.40;;;18.00;99.90;;;;;;5038192;28;20219;-77
2022/05/23 05:14:53;;;;;;;4.22;3.40;;;18.20;99.90;;;;;;5047683;28;20288;-77
2022/05/23 05:17:21;;;;;;;3.13;2.78;;;18.50;99.90;;;;;;5044516;28;20725;-77
2022/05/23 05:19:50;;;;;;;4.57;2.90;;;18.70;99.90;;;;;;5044682;28;20631;-76
2022/05/23 05:22:17;;;;;;;3.50;2.83;;;18.90;99.90;;;;;;5043209;28;20226;-76
2022/05/23 05:24:44;;;;;;;3.63;2.95;;;19.20;99.90;;;;;;5041234;28;22601;-76
2022/05/23 05:27:12;;;;;;;3.15;2.85;;;19.50;99.90;;;;;;5046415;28;20635;-75
2022/05/23 05:29:39;;;;;;;4.28;3.03;;;19.60;99.90;;;;;;5039420;28;20225;-76
2022/05/23 05:32:12;;;;;;;4.82;2.85;;;19.60;99.90;;;;;;5046692;28;20226;-76
2022/05/23 05:34:45;;;;;;;4.72;3.05;;;19.50;99.90;;;;;;5040437;28;20744;-76
2022/05/23 05:37:17;;;;;;;3.30;3.00;;;19.50;99.90;;;;;;5042864;28;20219;-76
2022/05/23 05:39:46;;;;;;;3.63;2.95;;;19.50;99.90;;;;;;5040379;28;20337;-76
2022/05/23 05:42:20;;;;;;;3.85;3.20;;;19.50;99.90;;;;;;5040355;28;20262;-75
2022/05/23 05:44:52;;;;;;;4.63;3.08;;;19.30;99.90;;;;;;5040915;28;20230;-76
2022/05/23 05:47:21;;;;;;;4.00;2.83;;;19.20;99.90;;;;;;5046591;28;20264;-74
2022/05/23 05:49:53;;;;;;;2.90;2.60;;;19.20;99.90;;;;;;5042442;28;20653;-76
2022/05/23 05:52:25;;;;;;;3.30;3.00;;;19.10;99.90;;;;;;5056606;28;21007;-76
2022/05/23 05:54:53;;;;;;;3.38;3.00;;;19.00;99.90;;;;;;5046331;28;20238;-77
2022/05/23 05:57:21;;;;;;;3.75;2.40;;;18.90;99.90;;;;;;5046158;28;20222;-76
2022/05/23 05:59:49;;;;;;;3.40;2.60;;;19.00;99.90;;;;;;5053302;28;20195;-77
2022/05/23 06:02:17;;;;;;;2.95;2.58;;;19.10;99.90;;;;;;5046665;28;20229;-76
2022/05/23 06:04:45;;;;;;;2.78;2.55;;;19.20;99.90;;;;;;5048509;28;20238;-76
2022/05/23 06:12:49;;;;;;;8.40;3.30;;;19.30;99.90;;;;;;5045960;28;20226;-77
2022/05/23 06:15:17;;;;;;;4.50;3.03;;;19.40;99.90;;;;;;5050955;28;20253;-77
2022/05/23 06:17:44;;;;;;;6.30;3.97;;;19.50;99.90;;;;;;5049389;28;20221;-77
2022/05/23 06:20:12;;;;;;;3.97;2.80;;;19.50;99.90;;;;;;5048242;28;20203;-77
2022/05/23 06:22:39;;;;;;;5.63;3.38;;;19.40;99.90;;;;;;5038769;28;20570;-77
2022/05/23 06:25:10;;;;;;;5.95;3.67;;;19.40;99.90;;;;;;5044703;28;20206;-77
2022/05/23 06:27:38;;;;;;;4.25;3.65;;;19.40;99.90;;;;;;5043641;28;20279;-77
2022/05/23 06:30:06;;;;;;;4.53;3.95;;;19.30;99.90;;;;;;5042268;28;20203;-76
2022/05/23 06:32:34;;;;;;;6.85;3.53;;;19.30;99.90;;;;;;5045787;28;20226;-76
2022/05/23 06:35:01;;;;;;;3.97;3.30;;;19.30;99.90;;;;;;5044650;28;20195;-78
2022/05/23 06:37:28;;;;;;;4.43;3.13;;;19.30;99.90;;;;;;5046984;28;20218;-76
2022/05/23 06:39:55;;;;;;;5.47;4.15;;;19.30;99.90;;;;;;5045994;28;20203;-77
2022/05/23 06:42:23;;;;;;;6.40;3.85;;;19.40;99.90;;;;;;5044568;28;20237;-77
2022/05/23 06:44:50;;;;;;;7.75;4.45;;;19.40;99.90;;;;;;5057750;28;20233;-78
2022/05/23 06:47:17;;;;;;;6.07;4.07;;;19.60;99.90;;;;;;5043723;28;20713;-77
2022/05/23 06:49:44;;;;;;;6.22;4.10;;;19.70;99.90;;;;;;5046307;28;20203;-77
2022/05/23 06:52:15;;;;;;;4.70;3.42;;;19.90;99.90;;;;;;5045244;28;20223;-77
2022/05/23 06:54:42;;;;;;;3.90;3.50;;;20.00;99.90;;;;;;5045434;28;20218;-77
2022/05/23 06:57:10;;;;;;;4.57;3.35;;;20.10;99.90;;;;;;5043218;28;20230;-75
2022/05/23 06:59:38;;;;;;;4.90;3.72;;;20.10;99.90;;;;;;5041465;28;20190;-76
2022/05/23 07:02:07;;;;;;;5.70;4.10;;;20.10;99.90;;;;;;5039354;28;20233;-79
2022/05/23 07:12:44;;;;;;;5.65;3.65;;;19.90;99.90;;;;;;5036731;28;20273;-76
2022/05/23 07:15:13;;;;;;;5.65;3.40;;;20.00;99.90;;;;;;5042514;28;20210;-76
2022/05/23 07:17:40;;;;;;;7.15;4.22;;;20.20;99.90;;;;;;5038518;28;20877;-77
2022/05/23 07:20:08;;;;;;;7.85;3.92;;;20.60;99.90;;;;;;5041111;28;20261;-76
2022/05/23 07:22:35;;;;;;;4.28;3.60;;;20.90;99.90;;;;;;5040100;28;20234;-76
2022/05/23 07:25:03;;;;;;;4.38;3.35;;;21.10;99.90;;;;;;5040565;28;20207;-76
2022/05/23 07:27:30;;;;;;;5.05;3.78;;;21.10;99.90;;;;;;5043977;28;20227;-77
2022/05/23 07:29:58;;;;;;;5.75;3.65;;;21.20;99.90;;;;;;5041699;28;20587;-78
2022/05/23 07:32:26;;;;;;;5.82;3.83;;;21.30;99.90;;;;;;5043739;28;20276;-77
2022/05/23 07:34:53;;;;;;;4.50;3.83;;;21.30;99.90;;;;;;5039081;28;20226;-77
2022/05/23 07:37:20;;;;;;;4.55;4.15;;;21.30;99.90;;;;;;5051871;28;20234;-78
2022/05/23 07:39:47;;;;;;;7.90;4.38;;;21.20;99.90;;;;;;5047147;28;20201;-77
2022/05/23 07:42:14;;;;;;;5.03;3.80;;;21.20;99.90;;;;;;5048123;28;20227;-78
2022/05/23 07:44:42;;;;;;;7.15;4.13;;;21.40;99.90;;;;;;5051160;28;20505;-78
2022/05/23 07:47:09;;;;;;;5.82;3.83;;;21.60;99.90;;;;;;5052686;28;20230;-77
2022/05/23 07:49:37;;;;;;;6.57;4.32;;;21.50;99.90;;;;;;5048858;28;20199;-77
2022/05/23 07:52:05;;;;;;;6.00;4.22;;;21.40;99.90;;;;;;5048562;28;20233;-77
2022/05/23 08:02:45;;;;;;;4.32;3.45;;;21.40;99.90;;;;;;5049054;28;20485;-77
2022/05/23 08:05:14;;;;;;;5.15;3.75;;;21.40;99.90;;;;;;5048994;28;20195;-77
2022/05/23 08:07:41;;;;;;;4.82;3.63;;;21.60;99.90;;;;;;5047101;28;20230;-77
2022/05/23 08:10:09;;;;;;;7.82;3.97;;;21.60;99.90;;;;;;5048253;28;20195;-76
2022/05/23 08:12:36;;;;;;;5.70;3.80;;;21.60;99.90;;;;;;5048767;28;20222;-77
2022/05/23 08:15:05;;;;;;;5.82;4.03;;;21.50;99.90;;;;;;5048732;28;20238;-77
2022/05/23 08:17:32;;;;;;;5.47;3.58;;;21.50;99.90;;;;;;5048095;28;20302;-77
2022/05/23 08:19:59;;;;;;;7.40;3.75;;;21.50;99.90;;;;;;5045908;28;20236;-77
2022/05/23 08:22:29;;;;;;;4.80;3.42;;;21.60;99.90;;;;;;5045290;28;20226;-76
2022/05/23 08:24:56;;;;;;;4.10;3.70;;;21.60;99.90;;;;;;5042679;28;20701;-77
2022/05/23 08:27:23;;;;;;;5.05;3.22;;;21.70;99.90;;;;;;5044791;28;20227;-77
2022/05/23 08:29:52;;;;;;;4.95;3.20;;;21.80;99.90;;;;;;5053589;28;20225;-77
2022/05/23 08:32:20;;;;;;;6.72;3.95;;;21.90;99.90;;;;;;5051308;28;20433;-76
2022/05/23 08:34:48;;;;;;;4.10;3.53;;;22.00;99.90;;;;;;5047292;28;20214;-76
2022/05/23 08:37:15;;;;;;;5.72;4.20;;;22.10;99.90;;;;;;5047135;28;20218;-76
2022/05/23 08:39:44;;;;;;;5.15;3.50;;;22.10;99.90;;;;;;5047914;28;20407;-76
2022/05/23 08:42:15;;;;;;;5.40;4.03;;;22.40;99.90;;;;;;5048248;28;20682;-77
2022/05/23 08:44:46;;;;;;;4.97;3.63;;;22.70;99.90;;;;;;5054889;28;20708;-76
2022/05/23 08:47:26;;;;;;;7.60;3.70;;;22.90;99.90;;;;;;5053619;28;20301;-76
2022/05/23 08:50:05;;;;;;;7.85;3.85;;;23.00;99.90;;;;;;5048350;28;20194;-77
2022/05/23 08:52:38;;;;;;;5.95;3.50;;;22.90;99.90;;;;;;5044845;28;20215;-77
2022/05/23 08:55:14;;;;;;;3.75;3.15;;;23.10;99.90;;;;;;5046674;28;20232;-77
2022/05/23 08:57:50;;;;;;;7.15;4.18;;;23.30;99.90;;;;;;5044808;28;20227;-77
2022/05/23 09:00:21;;;;;;;5.18;4.00;;;23.40;99.90;;;;;;5045676;28;20195;-77
2022/05/23 09:02:52;;;;;;;5.43;4.00;;;23.40;99.90;;;;;;5046263;28;20222;-77
2022/05/23 09:05:21;;;;;;;4.32;3.90;;;23.40;99.90;;;;;;5047586;28;20191;-77
2022/05/23 09:07:56;;;;;;;7.95;4.20;;;23.30;99.90;;;;;;5047224;28;20265;-77
2022/05/23 09:10:28;;;;;;;5.80;3.65;;;23.30;99.90;;;;;;5048482;28;20751;-77
2022/05/23 09:12:56;;;;;;;5.90;4.30;;;23.50;99.90;;;;;;5042816;28;20272;-76
2022/05/23 09:15:24;;;;;;;8.57;4.47;;;23.50;99.90;;;;;;5051888;28;20194;-77
2022/05/23 09:17:55;;;;;;;6.13;3.88;;;23.40;99.90;;;;;;5050783;28;20310;-77
2022/05/23 09:20:33;;;;;;;7.28;3.85;;;23.30;99.90;;;;;;5047379;28;20198;-77
2022/05/23 09:23:04;;;;;;;5.55;4.05;;;23.10;99.90;;;;;;5051147;28;20223;-77
2022/05/23 09:25:33;;;;;;;6.70;4.30;;;23.00;99.90;;;;;;5045923;28;20195;-77
2022/05/23 09:28:13;;;;;;;5.85;3.80;;;23.10;99.90;;;;;;5047620;28;20223;-77
2022/05/23 09:30:41;;;;;;;4.63;3.65;;;23.10;99.90;;;;;;5047693;28;20191;-77
2022/05/23 09:33:11;;;;;;;5.10;3.72;;;23.10;99.90;;;;;;5049475;28;20223;-76
2022/05/23 09:35:51;;;;;;;4.13;3.40;;;23.00;99.90;;;;;;5054242;28;20198;-77
2022/05/23 09:38:21;;;;;;;4.80;3.58;;;23.00;99.90;;;;;;5051645;28;20222;-76
2022/05/23 09:40:51;;;;;;;9.20;4.10;;;23.10;99.90;;;;;;5054903;28;20182;-77
2022/05/23 09:49:05;;;;;;;6.03;3.90;;;23.80;99.90;;;;;;5048747;28;20617;-77
2022/05/23 09:51:33;;;;;;;4.57;3.40;;;24.30;99.90;;;;;;5048822;28;20206;-77
2022/05/23 09:54:03;;;;;;;4.72;3.80;;;24.70;99.90;;;;;;5051641;28;20596;-77
2022/05/23 09:56:39;;;;;;;5.72;4.40;;;25.10;99.90;;;;;;5047067;28;20610;-77
2022/05/23 09:59:10;;;;;;;7.13;4.20;;;25.20;99.90;;;;;;5040639;28;20301;-77
2022/05/23 10:01:38;;;;;;;6.35;4.20;;;25.80;99.90;;;;;;5050580;28;20194;-77
2022/05/23 10:04:15;;;;;;;6.72;3.58;;;26.10;99.90;;;;;;5050081;28;20697;-77
2022/05/23 10:06:48;;;;;;;6.13;4.35;;;26.40;99.90;;;;;;5050657;28;20195;-76
2022/05/23 10:09:25;;;;;;;8.98;3.63;;;26.80;99.90;;;;;;5049558;28;20226;-77
2022/05/23 10:11:56;;;;;;;5.95;3.70;;;26.70;99.90;;;;;;5051083;28;20225;-76
2022/05/23 10:14:25;;;;;;;6.85;4.50;;;26.40;99.90;;;;;;5054394;28;20226;-76
2022/05/23 10:16:55;;;;;;;5.32;4.00;;;26.00;99.90;;;;;;5069234;28;20256;-76
2022/05/23 10:19:32;;;;;;;6.18;3.92;;;25.70;99.90;;;;;;5050177;28;20322;-77
2022/05/23 10:22:15;;;;;;;5.47;3.92;;;25.60;99.90;;;;;;5048051;28;20847;-76
2022/05/23 10:24:49;;;;;;;6.90;4.05;;;25.50;99.90;;;;;;5048557;28;20681;-77
2022/05/23 10:27:27;;;;;;;5.05;3.80;;;25.40;99.90;;;;;;5050728;28;20294;-76
2022/05/23 10:29:57;;;;;;;6.35;4.18;;;25.50;99.90;;;;;;5049141;28;20222;-76
2022/05/23 10:32:30;;;;;;;7.93;4.00;;;25.70;99.90;;;;;;5049624;28;20245;-76
2022/05/23 10:35:06;;;;;;;6.03;4.00;;;25.90;99.90;;;;;;5046603;28;20219;-77
2022/05/23 10:37:36;;;;;;;5.75;4.35;;;26.00;99.90;;;;;;5050020;28;20290;-77
2022/05/23 10:43:01;;;;;;;6.07;4.38;;;26.20;99.90;;;;;;5047452;28;20671;-76
2022/05/23 10:45:33;;;;;;;8.05;4.60;;;26.60;99.90;;;;;;5056579;28;20669;-77
2022/05/23 10:48:34;;;;;;;7.05;4.10;;;26.80;99.90;;;;;;5051455;28;20313;-77
2022/05/23 10:51:11;;;;;;;6.38;4.80;;;26.80;99.90;;;;;;5050183;28;20281;-77
2022/05/23 10:53:54;;;;;;;5.18;4.30;;;26.90;99.90;;;;;;5048986;28;20301;-76
2022/05/23 10:56:30;;;;;;;5.18;3.97;;;26.90;99.90;;;;;;5054018;28;20198;-76
2022/05/23 10:59:03;;;;;;;6.47;3.85;;;27.10;99.90;;;;;;5046418;28;20222;-77
2022/05/23 11:01:54;;;;;;;6.55;4.10;;;27.10;99.90;;;;;;5048905;28;20669;-77
2022/05/23 11:04:39;;;;;;;6.50;4.30;;;27.30;99.90;;;;;;5044049;28;20234;-78
2022/05/23 11:07:28;;;;;;;9.13;5.10;;;27.30;99.90;;;;;;5047059;28;20655;-76
2022/05/23 11:10:03;;;;;;;7.68;4.35;;;27.10;99.90;;;;;;5060759;28;20280;-76
2022/05/23 11:12:40;;;;;;;6.28;4.30;;;27.20;99.90;;;;;;5046589;28;20633;-76
2022/05/23 11:15:28;;;;;;;4.50;3.78;;;27.20;99.90;;;;;;5051250;28;20215;-76
2022/05/23 11:18:03;;;;;;;6.55;3.95;;;27.20;99.90;;;;;;5051572;28;20195;-76
2022/05/23 11:20:33;;;;;;;5.10;4.18;;;27.30;99.90;;;;;;5049181;28;20191;-77
2022/05/23 11:23:05;;;;;;;5.80;4.22;;;27.40;99.90;;;;;;5045604;28;20219;-76
2022/05/23 11:25:35;;;;;;;7.93;4.15;;;27.40;99.90;;;;;;5046893;28;20390;-77
2022/05/23 11:33:49;;;;;;;5.72;4.00;;;27.70;99.90;;;;;;5047553;28;20233;-77
2022/05/23 11:36:24;;;;;;;5.25;3.92;;;27.90;99.90;;;;;;5050474;28;20202;-76
2022/05/23 11:38:52;;;;;;;8.02;4.60;;;28.10;99.90;;;;;;5049188;28;20535;-76
2022/05/23 11:41:41;;;;;;;5.88;4.13;;;28.30;99.90;;;;;;5049133;28;20490;-76
2022/05/23 11:44:55;;;;;;;4.18;3.58;;;28.30;99.90;;;;;;5048365;28;20226;-75
2022/05/23 11:47:26;;;;;;;4.97;4.18;;;28.50;99.90;;;;;;4971936;28;20264;-77
2022/05/23 11:50:06;;;;;;;6.28;4.35;;;28.40;99.90;;;;;;4967101;28;20233;-77
2022/05/23 11:52:36;;;;;;;7.53;4.05;;;28.30;99.90;;;;;;5012150;28;20190;-76
2022/05/23 11:55:03;;;;;;;5.70;4.30;;;28.30;99.90;;;;;;5051415;28;20632;-76
2022/05/23 11:57:35;;;;;;;6.47;5.10;;;28.20;99.90;;;;;;5048570;28;20202;-77
2022/05/23 12:00:30;;;;;;;4.20;3.78;;;28.30;99.90;;;;;;5050594;28;20227;-77
2022/05/23 12:03:15;;;;;;;6.20;4.10;;;28.30;99.90;;;;;;5050438;28;20215;-76
2022/05/23 12:05:42;;;;;;;4.63;4.07;;;28.70;99.90;;;;;;5046658;28;20565;-76
2022/05/23 12:08:31;;;;;;;5.00;3.95;;;28.80;99.90;;;;;;5048154;28;20248;-76
2022/05/23 12:11:02;;;;;;;13.05;6.47;;;29.20;99.90;;;;;;5048387;28;20662;-78
2022/05/23 12:13:48;;;;;;;13.77;6.93;;;29.30;99.90;;;;;;5051305;28;20218;-75
2022/05/23 12:16:39;;;;;;;9.93;6.88;;;29.10;99.90;;;;;;5051543;28;20222;-75
2022/05/23 12:19:41;;;;;;;11.25;7.15;;;29.20;99.90;;;;;;5044619;28;20229;-75
2022/05/23 12:22:30;;;;;;;10.82;6.97;;;29.20;99.90;;;;;;5041089;28;20186;-75
2022/05/23 12:25:22;;;;;;;10.27;6.82;;;29.00;99.90;;;;;;5044671;28;20223;-73
2022/05/23 12:28:10;;;;;;;12.23;7.22;;;29.00;99.90;;;;;;5046383;28;20195;-75
2022/05/23 12:30:43;;;;;;;9.40;6.65;;;29.20;99.90;;;;;;5045445;28;20297;-74
2022/05/23 12:33:22;;;;;;;7.32;6.57;;;29.30;99.90;;;;;;5048559;28;20215;-75
2022/05/23 12:36:05;;;;;;;9.80;7.97;;;29.40;99.90;;;;;;5047653;28;20272;-74
2022/05/23 12:38:51;;;;;;;8.65;7.43;;;29.30;99.90;;;;;;5040714;28;20214;-75
2022/05/23 12:41:37;;;;;;;8.23;6.57;;;29.20;99.90;;;;;;5047740;28;20584;-75
2022/05/23 12:44:35;;;;;;;10.23;7.80;;;29.20;99.90;;;;;;5044188;28;20226;-75
2022/05/23 12:47:16;;;;;;;7.75;6.45;;;29.20;99.90;;;;;;5047693;28;20287;-75
2022/05/23 12:49:53;;;;;;;10.85;7.28;;;29.40;99.90;;;;;;5045880;28;20218;-74
2022/05/23 12:52:32;;;;;;;7.80;6.82;;;29.50;99.90;;;;;;5048008;28;20244;-74
2022/05/23 12:55:15;;;;;;;8.30;6.90;;;29.60;99.90;;;;;;5056124;28;20210;-75
2022/05/23 12:58:13;;;;;;;11.73;7.45;;;29.60;99.90;;;;;;5047309;28;20206;-77
2022/05/23 13:00:45;;;;;;;9.07;7.63;;;29.70;99.90;;;;;;5044236;28;20283;-75
2022/05/23 13:03:26;;;;;;;10.60;7.38;;;29.60;99.90;;;;;;5048339;28;20244;-75
2022/05/23 13:06:06;;;;;;;10.00;7.22;;;29.70;99.90;;;;;;5046838;28;20224;-75
2022/05/23 13:08:41;;;;;;;10.88;7.45;;;29.70;99.90;;;;;;5044923;28;20304;-75
2022/05/23 13:11:15;;;;;;;10.57;7.80;;;29.80;99.90;;;;;;5047061;28;20721;-75
2022/05/23 13:13:45;;;;;;;10.70;8.23;;;29.70;99.90;;;;;;5049468;28;20719;-75
2022/05/23 13:16:18;;;;;;;9.95;7.97;;;29.70;99.90;;;;;;5054191;28;20770;-74
2022/05/23 13:24:48;;;;;;;12.32;10.05;;;29.20;99.90;;;;;;5047049;28;20227;-75
2022/05/23 13:27:08;;;;;;;11.57;10.02;;;28.90;99.90;;;;;;5049813;28;20215;-76
2022/05/23 13:29:35;;;;;;;11.90;10.25;;;28.50;99.90;;;;;;5046370;28;20195;-75
2022/05/23 13:32:05;;;;;;;11.30;10.13;;;28.50;99.90;;;;;;5048143;28;20246;-74
2022/05/23 13:34:33;;;;;;;14.07;9.60;;;28.30;99.90;;;;;;5046541;28;20233;-74
2022/05/23 13:37:00;;;;;;;10.68;9.65;;;28.20;99.90;;;;;;5046762;28;20219;-76
2022/05/23 13:39:29;;;;;;;12.40;9.57;;;28.40;99.90;;;;;;5043399;28;20199;-76
2022/05/23 13:41:56;;;;;;;11.18;10.13;;;28.60;99.90;;;;;;5043961;28;20226;-75
2022/05/23 13:44:27;;;;;;;11.77;10.23;;;28.70;99.90;;;;;;5050183;28;20246;-75
2022/05/23 13:47:00;;;;;;;11.82;10.05;;;28.70;99.90;;;;;;5060451;28;20228;-75
2022/05/23 13:49:32;;;;;;;17.13;11.35;;;28.40;99.90;;;;;;5046395;28;20579;-75
2022/05/23 13:52:02;;;;;;;12.52;10.20;;;28.20;99.90;;;;;;5045214;28;20292;-76
2022/05/23 13:54:35;;;;;;;13.43;10.80;;;28.20;99.90;;;;;;5042775;28;20211;-74
2022/05/23 13:57:08;;;;;;;11.05;9.95;;;28.30;99.90;;;;;;5045857;28;20293;-75
2022/05/23 13:59:40;;;;;;;13.75;10.43;;;28.40;99.90;;;;;;5047200;28;20199;-77
2022/05/23 14:02:13;;;;;;;15.32;10.88;;;28.40;99.90;;;;;;5046635;28;20725;-75
2022/05/23 14:04:42;;;;;;;17.58;10.65;;;28.30;99.90;;;;;;5046291;28;20226;-75
2022/05/23 14:07:11;;;;;;;17.88;11.70;;;28.00;99.90;;;;;;5045000;28;20246;-75